Terminal Aerodrome Forecast
Issued by NWS Sioux Falls, SD

Home | Current Version | Previous Version | Text Only | Print | Product List | Glossary On
Versions: 1 2 3 4 5 6 7 8 9 10 11 12 13 14 15 16 17
000
FTUS43 KFSD 271120
TAFHON
TAF
KHON 271120Z 2712/2812 33010KT P6SM SCT012 BKN120
     FM271600 28007KT P6SM SCT015 SCT200
      TEMPO 2721/2723 BKN020
     FM272300 19006KT P6SM SCT025 BKN150=

USA.gov is the U.S. government's official web portal to all federal, state and local government web resources and services.